createdAt,value
2023-01-21T00:02:24.441Z,100.00
2023-01-21T00:04:54.727Z,100.00
2023-01-21T00:07:22.423Z,100.00
2023-01-21T00:09:50.141Z,100.00
2023-01-21T00:12:17.896Z,100.00
2023-01-21T00:14:45.617Z,100.00
2023-01-21T00:17:13.739Z,100.00
2023-01-21T00:19:41.484Z,100.00
2023-01-21T00:22:10.595Z,100.00
2023-01-21T00:24:38.357Z,100.00
2023-01-21T00:27:06.067Z,100.00
2023-01-21T00:29:33.796Z,100.00
2023-01-21T00:32:01.493Z,100.00
2023-01-21T00:34:29.195Z,100.00
2023-01-21T00:36:56.849Z,100.00
2023-01-21T00:39:26.011Z,100.00
2023-01-21T00:41:53.736Z,100.00
2023-01-21T00:44:21.483Z,100.00
2023-01-21T00:46:49.218Z,100.00
2023-01-21T00:49:16.964Z,100.00
2023-01-21T00:51:44.760Z,100.00
2023-01-21T00:54:12.483Z,100.00
2023-01-21T00:56:41.581Z,100.00
2023-01-21T00:59:09.737Z,100.00
2023-01-21T01:01:38.593Z,100.00
2023-01-21T01:04:06.897Z,100.00
2023-01-21T01:06:35.397Z,100.00
2023-01-21T01:09:03.125Z,100.00
2023-01-21T01:11:31.629Z,100.00
2023-01-21T01:14:00.918Z,100.00
2023-01-21T01:16:28.634Z,100.00
2023-01-21T01:18:56.954Z,100.00
2023-01-21T01:21:25.252Z,100.00
2023-01-21T01:23:54.715Z,100.00
2023-01-21T01:26:23.037Z,100.00
2023-01-21T01:28:50.814Z,100.00
2023-01-21T01:31:20.900Z,100.00
2023-01-21T01:33:49.005Z,100.00
2023-01-21T01:36:19.025Z,100.00
2023-01-21T01:38:47.320Z,100.00
2023-01-21T01:41:17.813Z,100.00
2023-01-21T01:44:05.292Z,100.00
2023-01-21T01:46:36.113Z,100.00
2023-01-21T01:49:12.132Z,100.00
2023-01-21T01:51:46.942Z,100.00
2023-01-21T01:54:18.548Z,100.00
2023-01-21T01:56:51.535Z,100.00
2023-01-21T01:59:19.916Z,100.00
2023-01-21T02:01:49.131Z,100.00
2023-01-21T02:04:23.197Z,100.00
2023-01-21T02:06:53.577Z,100.00
2023-01-21T02:09:21.989Z,100.00
2023-01-21T02:11:50.179Z,100.00
2023-01-21T02:14:18.880Z,100.00
2023-01-21T02:17:07.469Z,100.00
2023-01-21T02:20:12.693Z,100.00
2023-01-21T02:22:45.602Z,100.00
2023-01-21T02:25:46.156Z,100.00
2023-01-21T02:28:51.466Z,100.00
2023-01-21T02:31:41.229Z,100.00
2023-01-21T02:34:26.435Z,100.00
2023-01-21T02:37:07.248Z,100.00
2023-01-21T02:39:51.750Z,100.00
2023-01-21T02:42:26.103Z,100.00
2023-01-21T02:45:01.712Z,100.00
2023-01-21T02:47:34.896Z,100.00
2023-01-21T02:50:08.049Z,100.00
2023-01-21T02:52:35.832Z,100.00
2023-01-21T02:55:03.833Z,100.00
2023-01-21T02:57:43.344Z,100.00
2023-01-21T03:00:16.996Z,100.00
2023-01-21T03:03:25.741Z,100.00
2023-01-21T03:06:16.675Z,100.00
2023-01-21T03:08:51.164Z,100.00
2023-01-21T03:11:21.290Z,100.00
2023-01-21T03:14:11.010Z,100.00
2023-01-21T03:16:59.284Z,100.00
2023-01-21T03:19:34.024Z,100.00
2023-01-21T03:22:07.085Z,100.00
2023-01-21T03:24:35.710Z,100.00
2023-01-21T03:27:06.870Z,100.00
2023-01-21T03:29:36.142Z,100.00
2023-01-21T03:32:08.554Z,100.00
2023-01-21T03:34:41.547Z,100.00
2023-01-21T03:37:12.526Z,100.00
2023-01-21T03:39:47.700Z,100.00
2023-01-21T03:42:16.511Z,100.00
2023-01-21T03:44:44.680Z,100.00
2023-01-21T03:47:20.796Z,100.00
2023-01-21T03:49:53.280Z,100.00
2023-01-21T03:52:25.492Z,100.00
2023-01-21T03:54:53.299Z,100.00
2023-01-21T03:57:21.321Z,100.00
2023-01-21T03:59:49.078Z,100.00
2023-01-21T04:02:20.075Z,100.00
2023-01-21T04:04:48.305Z,100.00
2023-01-21T04:07:16.970Z,100.00
2023-01-21T04:09:46.385Z,100.00
2023-01-21T04:12:14.159Z,100.00
2023-01-21T04:14:41.864Z,100.00
2023-01-21T04:17:09.771Z,100.00
2023-01-21T04:19:37.446Z,100.00
2023-01-21T04:22:05.225Z,100.00
2023-01-21T04:24:34.669Z,100.00
2023-01-21T04:27:03.933Z,100.00
2023-01-21T04:29:31.628Z,100.00
2023-01-21T04:31:59.492Z,100.00
2023-01-21T04:34:27.279Z,100.00
2023-01-21T04:36:55.066Z,100.00
2023-01-21T04:39:22.751Z,100.00
2023-01-21T04:41:50.497Z,100.00
2023-01-21T04:44:19.483Z,100.00
2023-01-21T04:46:47.125Z,100.00
2023-01-21T04:49:14.755Z,100.00
2023-01-21T04:51:42.458Z,100.00
2023-01-21T04:54:11.019Z,100.00
2023-01-21T04:56:39.111Z,100.00
2023-01-21T04:59:06.908Z,100.00
2023-01-21T05:01:35.996Z,100.00
2023-01-21T05:04:04.069Z,100.00
2023-01-21T05:06:31.829Z,100.00
2023-01-21T05:08:59.555Z,100.00
2023-01-21T05:11:27.256Z,100.00
2023-01-21T05:13:54.983Z,100.00
2023-01-21T05:16:23.221Z,100.00
2023-01-21T05:18:52.362Z,100.00
2023-01-21T05:21:20.098Z,100.00
2023-01-21T05:23:47.825Z,100.00
2023-01-21T05:26:15.589Z,100.00
2023-01-21T05:28:43.361Z,100.00
2023-01-21T05:31:11.290Z,100.00
2023-01-21T05:33:39.116Z,100.00
2023-01-21T05:36:10.626Z,100.00
2023-01-21T05:38:38.338Z,100.00
2023-01-21T05:41:06.429Z,100.00
2023-01-21T05:43:34.310Z,100.00
2023-01-21T05:46:02.330Z,100.00
2023-01-21T05:48:30.537Z,100.00
2023-01-21T05:50:58.644Z,100.00
2023-01-21T05:53:28.543Z,100.00
2023-01-21T05:55:56.880Z,100.00
2023-01-21T05:58:27.455Z,100.00
2023-01-21T06:00:55.373Z,100.00
2023-01-21T06:03:23.526Z,100.00
2023-01-21T06:05:52.391Z,100.00
2023-01-21T06:08:20.347Z,100.00
2023-01-21T06:10:49.468Z,99.83
2023-01-21T06:13:17.552Z,99.14
2023-01-21T06:15:45.282Z,99.38
2023-01-21T06:18:12.953Z,99.27
2023-01-21T06:20:40.929Z,98.93
2023-01-21T06:23:08.631Z,98.78
2023-01-21T06:25:36.360Z,98.53
2023-01-21T06:28:05.429Z,98.73
2023-01-21T06:30:33.173Z,98.88
2023-01-21T06:33:00.899Z,99.23
2023-01-21T06:35:28.697Z,98.87
2023-01-21T06:37:56.411Z,99.41
2023-01-21T06:40:24.186Z,99.47
2023-01-21T06:42:51.999Z,99.88
2023-01-21T06:45:21.098Z,100.00
2023-01-21T06:47:48.975Z,100.00
2023-01-21T06:50:19.214Z,100.00
2023-01-21T06:52:49.248Z,99.93
2023-01-21T06:55:17.749Z,99.50
2023-01-21T06:57:45.729Z,99.09
2023-01-21T07:00:14.473Z,98.85
2023-01-21T07:02:43.637Z,98.46
2023-01-21T07:05:11.413Z,97.95
2023-01-21T07:07:39.146Z,98.06
2023-01-21T07:10:09.132Z,98.61
2023-01-21T07:12:36.853Z,98.56
2023-01-21T07:15:05.322Z,98.41
2023-01-21T07:17:33.218Z,99.08
2023-01-21T07:20:02.323Z,99.47
2023-01-21T07:22:30.080Z,99.41
2023-01-21T07:24:57.761Z,99.57
2023-01-21T07:27:25.504Z,99.94
2023-01-21T07:29:53.204Z,100.00
2023-01-21T07:32:20.935Z,100.00
2023-01-21T07:34:48.636Z,100.00
2023-01-21T07:37:17.722Z,99.89
2023-01-21T07:39:45.424Z,99.54
2023-01-21T07:42:13.211Z,99.36
2023-01-21T07:44:40.934Z,98.92
2023-01-21T07:47:08.608Z,98.34
2023-01-21T07:49:36.317Z,97.72
2023-01-21T07:52:04.268Z,97.81
2023-01-21T07:54:33.475Z,97.69
2023-01-21T07:57:01.212Z,97.08
2023-01-21T07:59:28.949Z,96.77
2023-01-21T08:01:58.008Z,96.28
2023-01-21T08:04:26.416Z,95.66
2023-01-21T08:06:57.003Z,95.93
2023-01-21T08:09:25.330Z,95.65
2023-01-21T08:11:54.476Z,95.24
2023-01-21T08:14:22.279Z,95.63
2023-01-21T08:16:50.056Z,95.37
2023-01-21T08:19:28.594Z,95.57
2023-01-21T08:21:56.550Z,95.37
2023-01-21T08:24:24.501Z,95.18
2023-01-21T08:26:52.355Z,95.22
2023-01-21T08:29:21.438Z,95.30
2023-01-21T08:31:49.279Z,95.66
2023-01-21T08:34:17.331Z,95.48
2023-01-21T08:36:45.181Z,95.90
2023-01-21T08:39:15.212Z,95.30
2023-01-21T08:41:43.021Z,95.30
2023-01-21T08:44:10.788Z,95.19
2023-01-21T08:46:39.937Z,94.83
2023-01-21T08:49:07.883Z,94.73
2023-01-21T08:51:35.739Z,94.74
2023-01-21T08:54:04.546Z,94.96
2023-01-21T08:56:32.461Z,94.93
2023-01-21T08:59:00.310Z,94.96
2023-01-21T09:01:29.161Z,94.82
2023-01-21T09:03:59.319Z,94.88
2023-01-21T09:06:28.859Z,95.29
2023-01-21T09:08:58.151Z,95.45
2023-01-21T09:11:27.111Z,95.05
2023-01-21T09:13:55.317Z,94.26
2023-01-21T09:16:24.142Z,93.66
2023-01-21T09:18:51.848Z,93.17
2023-01-21T09:21:20.983Z,93.09
2023-01-21T09:23:48.733Z,93.07
2023-01-21T09:26:18.455Z,93.19
2023-01-21T09:28:48.314Z,93.56
2023-01-21T09:31:18.473Z,93.57
2023-01-21T09:33:50.402Z,93.53
2023-01-21T09:36:21.815Z,93.58
2023-01-21T09:38:51.131Z,93.39
2023-01-21T09:41:24.832Z,92.73
2023-01-21T09:43:59.644Z,92.54
2023-01-21T09:46:35.392Z,93.15
2023-01-21T09:49:06.472Z,93.22
2023-01-21T09:51:50.178Z,92.38
2023-01-21T09:54:25.798Z,92.20
2023-01-21T09:57:18.589Z,92.13
2023-01-21T10:00:01.215Z,91.59
2023-01-21T10:02:39.723Z,90.78
2023-01-21T10:05:28.329Z,91.01
2023-01-21T10:08:04.601Z,91.18
2023-01-21T10:10:46.540Z,90.82
2023-01-21T10:13:36.523Z,90.87
2023-01-21T10:16:14.325Z,89.48
2023-01-21T10:18:45.321Z,89.55
2023-01-21T10:21:19.438Z,89.71
2023-01-21T10:23:52.507Z,89.15
2023-01-21T10:26:20.238Z,89.49
2023-01-21T10:28:51.721Z,89.72
2023-01-21T10:31:23.231Z,89.37
2023-01-21T10:33:51.248Z,89.61
2023-01-21T10:36:39.520Z,89.39
2023-01-21T10:39:17.410Z,89.60
2023-01-21T10:42:07.080Z,89.25
2023-01-21T10:44:44.993Z,88.48
2023-01-21T10:47:21.929Z,88.40
2023-01-21T10:49:57.834Z,88.83
2023-01-21T10:52:34.119Z,89.02
2023-01-21T10:55:14.404Z,88.60
2023-01-21T10:57:54.189Z,88.33
2023-01-21T11:00:24.162Z,88.32
2023-01-21T11:02:57.089Z,87.70
2023-01-21T11:05:25.548Z,88.01
2023-01-21T11:07:54.903Z,88.14
2023-01-21T11:10:27.127Z,87.99
2023-01-21T11:12:55.970Z,87.64
2023-01-21T11:15:25.533Z,87.00
2023-01-21T11:17:56.614Z,87.79
2023-01-21T11:20:36.630Z,87.41
2023-01-21T11:23:05.647Z,87.46
2023-01-21T11:25:38.847Z,87.28
2023-01-21T11:28:06.719Z,87.63
2023-01-21T11:30:50.187Z,87.06
2023-01-21T11:33:25.512Z,87.27
2023-01-21T11:35:55.011Z,87.29
2023-01-21T11:38:34.871Z,86.85
2023-01-21T11:41:16.095Z,86.01
2023-01-21T11:43:46.395Z,85.46
2023-01-21T11:46:34.931Z,86.16
2023-01-21T11:49:33.867Z,87.08
2023-01-21T11:52:19.781Z,86.97
2023-01-21T11:54:48.749Z,86.64
2023-01-21T11:57:28.759Z,86.96
2023-01-21T12:00:01.325Z,87.80
2023-01-21T12:02:32.351Z,87.99
2023-01-21T12:05:04.602Z,88.13
2023-01-21T12:07:36.164Z,88.22
2023-01-21T12:10:15.523Z,89.83
2023-01-21T12:13:01.058Z,89.26
2023-01-21T12:15:44.979Z,89.49
2023-01-21T12:18:26.486Z,89.30
2023-01-21T12:21:04.981Z,90.58
2023-01-21T12:23:46.654Z,90.02
2023-01-21T12:26:31.226Z,90.51
2023-01-21T12:29:12.216Z,90.17
2023-01-21T12:31:44.739Z,90.89
2023-01-21T12:34:19.827Z,90.76
2023-01-21T12:36:54.069Z,90.64
2023-01-21T12:39:26.083Z,90.86
2023-01-21T12:42:10.960Z,90.90
2023-01-21T12:44:47.326Z,90.29
2023-01-21T12:47:23.019Z,90.19
2023-01-21T12:50:05.032Z,90.47
2023-01-21T12:52:39.942Z,91.25
2023-01-21T12:55:17.260Z,90.97
2023-01-21T12:57:52.780Z,91.44
2023-01-21T13:00:26.214Z,91.86
2023-01-21T13:03:01.183Z,91.75
2023-01-21T13:05:36.315Z,92.05
2023-01-21T13:08:16.913Z,92.37
2023-01-21T13:10:51.145Z,92.79
2023-01-21T13:13:24.899Z,93.44
2023-01-21T13:15:58.648Z,93.16
2023-01-21T13:18:33.892Z,92.71
2023-01-21T13:21:09.748Z,93.16
2023-01-21T13:23:44.031Z,92.86
2023-01-21T13:26:18.037Z,93.05
2023-01-21T13:28:51.497Z,93.14
2023-01-21T13:31:27.163Z,93.27
2023-01-21T13:34:01.019Z,92.82
2023-01-21T13:36:41.543Z,92.48
2023-01-21T13:39:19.044Z,92.55
2023-01-21T13:41:58.898Z,92.50
2023-01-21T13:44:59.719Z,92.72
2023-01-21T13:47:45.445Z,93.09
2023-01-21T13:50:24.450Z,93.09
2023-01-21T13:53:26.012Z,92.37
2023-01-21T13:56:04.546Z,91.99
2023-01-21T13:58:40.213Z,91.99
2023-01-21T14:01:11.875Z,92.44
2023-01-21T14:03:47.703Z,92.33
2023-01-21T14:06:24.642Z,92.12
2023-01-21T14:08:58.169Z,91.76
2023-01-21T14:11:32.374Z,91.67
2023-01-21T14:14:27.669Z,91.22
2023-01-21T14:17:17.262Z,91.11
2023-01-21T14:20:07.786Z,91.42
2023-01-21T14:23:01.096Z,91.75
2023-01-21T14:25:38.913Z,91.88
2023-01-21T14:28:16.186Z,91.35
2023-01-21T14:30:49.390Z,90.88
2023-01-21T14:33:21.734Z,91.19
2023-01-21T14:35:58.245Z,91.47
2023-01-21T14:38:39.965Z,90.73
2023-01-21T14:41:09.952Z,90.41
2023-01-21T14:43:48.381Z,90.62
2023-01-21T14:46:32.735Z,89.91
2023-01-21T14:49:06.363Z,90.61
2023-01-21T14:51:36.821Z,90.56
2023-01-21T14:54:11.662Z,90.69
2023-01-21T14:56:40.274Z,90.38
2023-01-21T14:59:24.374Z,90.68
2023-01-21T15:01:59.493Z,90.90
2023-01-21T15:04:29.544Z,90.93
2023-01-21T15:07:02.044Z,91.09
2023-01-21T15:09:32.848Z,90.81
2023-01-21T15:12:03.359Z,90.59
2023-01-21T15:14:34.554Z,91.04
2023-01-21T15:17:02.569Z,91.46
2023-01-21T15:19:32.977Z,91.70
2023-01-21T15:22:21.243Z,91.27
2023-01-21T15:25:20.471Z,91.59
2023-01-21T15:28:38.293Z,91.47
2023-01-21T15:31:09.207Z,91.79
2023-01-21T15:33:45.601Z,91.97
2023-01-21T15:36:24.266Z,92.04
2023-01-21T15:38:55.559Z,92.19
2023-01-21T15:41:29.349Z,91.69
2023-01-21T15:44:13.755Z,91.93
2023-01-21T15:46:50.044Z,91.56
2023-01-21T15:49:35.255Z,91.55
2023-01-21T15:52:17.466Z,91.96
2023-01-21T15:54:54.860Z,91.86
2023-01-21T15:57:35.394Z,92.10
2023-01-21T16:00:30.054Z,92.51
2023-01-21T16:03:03.327Z,92.41
2023-01-21T16:05:41.856Z,92.62
2023-01-21T16:08:21.279Z,92.89
2023-01-21T16:11:03.383Z,92.88
2023-01-21T16:13:44.535Z,92.57
2023-01-21T16:16:19.875Z,92.79
2023-01-21T16:18:55.546Z,92.72
2023-01-21T16:21:28.842Z,92.29
2023-01-21T16:24:01.068Z,92.67
2023-01-21T16:26:33.110Z,92.90
2023-01-21T16:29:01.069Z,92.62
2023-01-21T16:31:29.057Z,92.50
2023-01-21T16:33:56.911Z,92.51
2023-01-21T16:36:24.709Z,92.70
2023-01-21T16:38:52.528Z,92.54
2023-01-21T16:41:24.109Z,92.50
2023-01-21T16:43:56.608Z,92.40
2023-01-21T16:46:28.261Z,92.22
2023-01-21T16:48:58.373Z,92.53
2023-01-21T16:51:30.804Z,92.71
2023-01-21T16:54:24.231Z,92.86
2023-01-21T16:56:54.508Z,93.02
2023-01-21T16:59:28.303Z,92.96
2023-01-21T17:01:57.433Z,93.11
2023-01-21T17:04:25.303Z,93.01
2023-01-21T17:06:53.938Z,92.67
2023-01-21T17:09:29.264Z,92.87
2023-01-21T17:11:59.175Z,92.75
2023-01-21T17:14:30.701Z,92.73
2023-01-21T17:17:01.117Z,92.64
2023-01-21T17:19:33.470Z,92.49
2023-01-21T17:22:04.928Z,92.63
2023-01-21T17:24:37.800Z,92.73
2023-01-21T17:27:10.348Z,93.08
2023-01-21T17:29:40.226Z,92.95
2023-01-21T17:32:24.399Z,93.27
2023-01-21T17:35:10.868Z,92.82
2023-01-21T17:37:52.262Z,93.19
2023-01-21T17:40:28.659Z,93.24
2023-01-21T17:42:57.508Z,92.85
2023-01-21T17:45:31.856Z,92.55
2023-01-21T17:48:09.368Z,93.16
2023-01-21T17:50:38.345Z,93.35
2023-01-21T17:53:09.981Z,93.16
2023-01-21T17:55:38.931Z,93.27
2023-01-21T17:58:44.389Z,92.98
2023-01-21T18:01:12.261Z,92.69
2023-01-21T18:03:40.079Z,93.14
2023-01-21T18:06:17.371Z,92.94
2023-01-21T18:08:45.075Z,93.51
2023-01-21T18:11:16.027Z,92.96
2023-01-21T18:13:45.220Z,93.10
2023-01-21T18:16:13.014Z,93.16
2023-01-21T18:18:41.663Z,93.01
2023-01-21T18:21:18.373Z,92.89
2023-01-21T18:23:46.336Z,92.73
2023-01-21T18:26:21.217Z,92.70
2023-01-21T18:28:50.362Z,91.94
2023-01-21T18:31:18.247Z,91.67
2023-01-21T18:33:45.978Z,91.87
2023-01-21T18:36:13.736Z,91.81
2023-01-21T18:38:41.723Z,91.20
2023-01-21T18:41:11.068Z,91.59
2023-01-21T18:43:38.741Z,91.40
2023-01-21T18:46:12.371Z,91.50
2023-01-21T18:48:40.507Z,91.73
2023-01-21T18:51:09.464Z,92.03
2023-01-21T18:53:37.331Z,91.94
2023-01-21T18:56:06.791Z,92.57
2023-01-21T18:58:34.615Z,92.36
2023-01-21T19:01:10.816Z,91.90
2023-01-21T19:03:46.893Z,92.17
2023-01-21T19:06:15.716Z,92.07
2023-01-21T19:08:44.983Z,92.15
2023-01-21T19:11:13.943Z,92.09
2023-01-21T19:13:41.768Z,91.95
2023-01-21T19:16:15.565Z,91.61
2023-01-21T19:18:43.529Z,91.38
2023-01-21T19:21:13.039Z,91.67
2023-01-21T19:23:41.142Z,91.52
2023-01-21T19:26:13.625Z,91.61
2023-01-21T19:28:41.477Z,91.80
2023-01-21T19:31:09.299Z,91.65
2023-01-21T19:33:37.074Z,92.15
2023-01-21T19:36:12.100Z,92.08
2023-01-21T19:38:43.907Z,91.91
2023-01-21T19:41:11.830Z,91.95
2023-01-21T19:43:39.606Z,91.83
2023-01-21T19:46:11.418Z,92.07
2023-01-21T19:48:39.262Z,91.72
2023-01-21T19:51:07.659Z,91.67
2023-01-21T19:53:35.455Z,91.40
2023-01-21T19:56:06.210Z,91.59
2023-01-21T19:58:34.428Z,91.85
2023-01-21T20:01:02.912Z,91.50
2023-01-21T20:03:30.729Z,90.86
2023-01-21T20:06:01.003Z,91.19
2023-01-21T20:08:30.727Z,91.41
2023-01-21T20:10:58.548Z,91.26
2023-01-21T20:13:31.417Z,91.31
2023-01-21T20:16:03.582Z,91.35
2023-01-21T20:18:33.150Z,91.19
2023-01-21T20:21:00.934Z,91.67
2023-01-21T20:23:29.059Z,91.55
2023-01-21T20:25:59.937Z,91.81
2023-01-21T20:28:35.969Z,91.80
2023-01-21T20:31:06.562Z,91.87
2023-01-21T20:33:35.559Z,91.68
2023-01-21T20:36:05.334Z,91.94
2023-01-21T20:38:35.372Z,91.90
2023-01-21T20:41:05.582Z,91.69
2023-01-21T20:43:34.941Z,91.64
2023-01-21T20:46:05.857Z,91.81
2023-01-21T20:48:37.047Z,92.08
2023-01-21T20:51:05.421Z,91.62
2023-01-21T20:53:33.243Z,91.54
2023-01-21T20:56:08.017Z,91.85
2023-01-21T20:58:37.111Z,91.87
2023-01-21T21:01:05.124Z,92.11
2023-01-21T21:03:32.831Z,92.40
2023-01-21T21:06:00.653Z,92.72
2023-01-21T21:08:28.399Z,92.48
2023-01-21T21:10:56.152Z,92.50
2023-01-21T21:13:23.972Z,92.59
2023-01-21T21:15:54.215Z,92.06
2023-01-21T21:18:21.965Z,92.57
2023-01-21T21:20:49.852Z,92.61
2023-01-21T21:23:17.615Z,92.78
2023-01-21T21:25:46.901Z,92.39
2023-01-21T21:28:16.329Z,92.65
2023-01-21T21:30:44.571Z,93.22
2023-01-21T21:33:19.523Z,93.32
2023-01-21T21:35:47.688Z,93.37
2023-01-21T21:38:17.596Z,93.31
2023-01-21T21:40:47.592Z,93.75
2023-01-21T21:43:32.426Z,93.82
2023-01-21T21:46:22.131Z,93.59
2023-01-21T21:48:52.010Z,93.79
2023-01-21T21:51:21.693Z,93.92
2023-01-21T21:53:49.912Z,93.82
2023-01-21T21:56:19.692Z,93.84
2023-01-21T21:58:48.149Z,94.11
2023-01-21T22:01:17.845Z,94.47
2023-01-21T22:03:46.129Z,94.93
2023-01-21T22:06:15.753Z,94.98
2023-01-21T22:08:44.108Z,95.32
2023-01-21T22:11:15.383Z,95.28
2023-01-21T22:13:43.983Z,95.18
2023-01-21T22:16:14.162Z,95.52
2023-01-21T22:18:42.360Z,96.44
2023-01-21T22:21:12.686Z,96.86
2023-01-21T22:23:42.065Z,96.99
2023-01-21T22:26:13.066Z,97.57
2023-01-21T22:28:41.500Z,97.34
2023-01-21T22:31:11.129Z,97.49
2023-01-21T22:33:39.080Z,97.49
2023-01-21T22:36:08.979Z,97.82
2023-01-21T22:38:40.364Z,98.32
2023-01-21T22:41:11.367Z,98.50
2023-01-21T22:43:41.833Z,99.02
2023-01-21T22:46:12.044Z,98.96
2023-01-21T22:48:40.031Z,99.03
2023-01-21T22:51:07.856Z,99.20
2023-01-21T22:53:35.836Z,99.79
2023-01-21T22:56:05.402Z,100.00
2023-01-21T22:58:37.017Z,100.00
2023-01-21T23:01:06.070Z,100.00
2023-01-21T23:03:33.838Z,100.00
2023-01-21T23:06:06.273Z,100.00
2023-01-21T23:08:34.685Z,100.00
2023-01-21T23:11:03.835Z,100.00
2023-01-21T23:13:31.696Z,100.00
2023-01-21T23:16:01.302Z,100.00
2023-01-21T23:18:30.130Z,100.00
2023-01-21T23:20:57.868Z,100.00
2023-01-21T23:23:25.832Z,100.00
2023-01-21T23:25:53.538Z,100.00
2023-01-21T23:28:21.305Z,100.00
2023-01-21T23:30:49.171Z,100.00
2023-01-21T23:33:18.361Z,100.00
2023-01-21T23:35:46.258Z,100.00
2023-01-21T23:38:13.980Z,100.00
2023-01-21T23:40:41.751Z,100.00
2023-01-21T23:43:09.537Z,100.00
2023-01-21T23:45:39.131Z,100.00
2023-01-21T23:48:07.296Z,100.00
2023-01-21T23:50:36.402Z,100.00
2023-01-21T23:53:04.127Z,100.00
2023-01-21T23:55:31.824Z,100.00
2023-01-21T23:57:59.515Z,100.00
